createdAt,value
2023-04-01T00:00:02.850Z,97362.88
2023-04-01T00:02:29.677Z,97365.75
2023-04-01T00:04:56.533Z,97366.50
2023-04-01T00:07:23.375Z,97367.31
2023-04-01T00:09:50.350Z,97349.91
2023-04-01T00:12:17.350Z,97357.59
2023-04-01T00:14:44.512Z,97352.41
2023-04-01T00:17:11.645Z,97372.50
2023-04-01T00:19:38.718Z,97368.22
2023-04-01T00:22:12.440Z,97367.09
2023-04-01T00:24:39.743Z,97369.13
2023-04-01T00:27:06.685Z,97360.31
2023-04-01T00:29:33.823Z,97360.97
2023-04-01T00:32:00.666Z,97360.63
2023-04-01T00:34:27.999Z,97367.78
2023-04-01T00:36:55.113Z,97373.97
2023-04-01T00:39:22.299Z,97372.16
2023-04-01T00:41:49.251Z,97363.25
2023-04-01T00:44:26.467Z,97354.31
2023-04-01T00:46:53.780Z,97369.34
2023-04-01T00:49:27.906Z,97361.88
2023-04-01T00:51:59.530Z,97368.41
2023-04-01T00:54:29.521Z,97374.53
2023-04-01T00:57:08.361Z,97361.50
2023-04-01T00:59:42.215Z,97369.94
2023-04-01T01:02:13.592Z,97362.69
2023-04-01T01:04:41.030Z,97365.41
2023-04-01T01:07:36.080Z,97369.25
2023-04-01T01:10:19.030Z,97361.91
2023-04-01T01:13:31.159Z,97369.84
2023-04-01T01:16:05.373Z,97357.97
2023-04-01T01:18:50.074Z,97365.47
2023-04-01T01:21:48.658Z,97358.47
2023-04-01T01:24:36.159Z,97364.66
2023-04-01T01:27:19.340Z,97354.94
2023-04-01T01:29:56.244Z,97370.41
2023-04-01T01:32:52.200Z,97377.44
2023-04-01T01:35:31.699Z,97359.09
2023-04-01T01:38:15.317Z,97355.75
2023-04-01T01:40:49.048Z,97359.91
2023-04-01T01:43:23.920Z,97359.56
2023-04-01T01:45:58.261Z,97354.03
2023-04-01T01:48:28.782Z,97368.38
2023-04-01T01:50:55.852Z,97357.72
2023-04-01T01:53:22.742Z,97357.94
2023-04-01T01:55:49.880Z,97364.38
2023-04-01T01:58:43.324Z,97359.91
2023-04-01T02:01:18.384Z,97361.97
2023-04-01T02:03:47.370Z,97356.25
2023-04-01T02:06:21.107Z,97349.81
2023-04-01T02:09:01.827Z,97359.53
2023-04-01T02:11:51.264Z,97353.31
2023-04-01T02:14:46.032Z,97369.69
2023-04-01T02:17:22.807Z,97368.72
2023-04-01T02:20:07.271Z,97381.00
2023-04-01T02:22:46.250Z,97364.38
2023-04-01T02:25:18.895Z,97379.56
2023-04-01T02:27:47.759Z,97374.34
2023-04-01T02:30:18.157Z,97367.41
2023-04-01T02:32:46.095Z,97384.53
2023-04-01T02:35:16.495Z,97392.97
2023-04-01T02:37:46.397Z,97365.38
2023-04-01T02:40:16.147Z,97374.47
2023-04-01T02:42:43.162Z,97351.09
2023-04-01T02:45:11.525Z,97354.06
2023-04-01T02:47:41.253Z,97354.53
2023-04-01T02:50:09.670Z,97360.41
2023-04-01T02:52:36.764Z,97366.19
2023-04-01T02:55:05.492Z,97363.13
2023-04-01T02:57:32.378Z,97353.28
2023-04-01T02:59:59.815Z,97359.34
2023-04-01T03:02:26.911Z,97344.41
2023-04-01T03:04:53.807Z,97354.28
2023-04-01T03:07:20.611Z,97361.47
2023-04-01T03:09:47.360Z,97364.03
2023-04-01T03:12:14.182Z,97361.22
2023-04-01T03:14:41.205Z,97347.47
2023-04-01T03:17:08.190Z,97352.16
2023-04-01T03:19:35.025Z,97349.75
2023-04-01T03:22:01.832Z,97352.81
2023-04-01T03:24:28.631Z,97347.41
2023-04-01T03:26:55.551Z,97351.34
2023-04-01T03:29:22.323Z,97355.31
2023-04-01T03:31:49.072Z,97350.38
2023-04-01T03:34:15.999Z,97353.53
2023-04-01T03:36:42.764Z,97350.69
2023-04-01T03:39:09.580Z,97349.91
2023-04-01T03:41:40.340Z,97358.16
2023-04-01T03:44:07.451Z,97348.44
2023-04-01T03:46:34.526Z,97354.00
2023-04-01T03:49:01.338Z,97353.19
2023-04-01T03:51:28.245Z,97349.72
2023-04-01T03:53:55.344Z,97353.34
2023-04-01T03:56:22.204Z,97348.91
2023-04-01T03:58:48.978Z,97353.34
2023-04-01T04:01:22.192Z,97353.47
2023-04-01T04:03:52.382Z,97336.09
2023-04-01T04:06:20.667Z,97341.84
2023-04-01T04:08:47.561Z,97326.72
2023-04-01T04:11:14.631Z,97331.75
2023-04-01T04:13:42.357Z,97330.63
2023-04-01T04:16:10.920Z,97334.78
2023-04-01T04:18:38.546Z,97326.78
2023-04-01T04:21:06.080Z,97334.91
2023-04-01T04:23:34.512Z,97336.97
2023-04-01T04:26:07.484Z,97324.53
2023-04-01T04:28:34.971Z,97325.34
2023-04-01T04:31:02.910Z,97337.16
2023-04-01T04:33:29.732Z,97324.44
2023-04-01T04:35:58.775Z,97321.56
2023-04-01T04:38:26.561Z,97320.44
2023-04-01T04:40:53.472Z,97323.81
2023-04-01T04:43:20.516Z,97312.06
2023-04-01T04:45:47.881Z,97329.25
2023-04-01T04:48:19.451Z,97332.56
2023-04-01T04:50:51.400Z,97321.72
2023-04-01T04:53:20.310Z,97324.88
2023-04-01T04:55:51.122Z,97317.09
2023-04-01T04:58:19.222Z,97323.94
2023-04-01T05:00:47.073Z,97328.78
2023-04-01T05:03:14.856Z,97327.50
2023-04-01T05:05:52.321Z,97331.69
2023-04-01T05:08:19.315Z,97321.78
2023-04-01T05:10:47.075Z,97313.44
2023-04-01T05:13:13.884Z,97313.91
2023-04-01T05:15:41.059Z,97310.06
2023-04-01T05:18:08.067Z,97304.34
2023-04-01T05:20:34.947Z,97295.22
2023-04-01T05:23:01.874Z,97295.66
2023-04-01T05:25:28.804Z,97286.63
2023-04-01T05:27:55.889Z,97289.00
2023-04-01T05:30:22.835Z,97284.06
2023-04-01T05:32:49.726Z,97292.19
2023-04-01T05:35:16.648Z,97304.72
2023-04-01T05:37:43.605Z,97302.91
2023-04-01T05:40:11.420Z,97287.13
2023-04-01T05:42:38.620Z,97298.63
2023-04-01T05:45:06.354Z,97286.34
2023-04-01T05:47:33.182Z,97295.72
2023-04-01T05:50:00.136Z,97293.00
2023-04-01T05:52:27.228Z,97291.88
2023-04-01T05:54:54.045Z,97316.25
2023-04-01T05:57:20.980Z,97307.22
2023-04-01T05:59:47.961Z,97312.53
2023-04-01T06:02:19.583Z,97308.09
2023-04-01T06:04:47.278Z,97306.84
2023-04-01T06:07:17.238Z,97307.50
2023-04-01T06:09:45.931Z,97306.25
2023-04-01T06:12:51.368Z,97303.94
2023-04-01T06:15:35.130Z,97309.88
2023-04-01T06:18:37.213Z,97314.06
2023-04-01T06:21:45.961Z,97316.31
2023-04-01T06:24:45.582Z,97314.06
2023-04-01T06:27:36.135Z,97310.34
2023-04-01T06:30:39.191Z,97310.28
2023-04-01T06:33:36.249Z,97314.00
2023-04-01T06:36:38.934Z,97333.25
2023-04-01T06:39:44.071Z,97317.56
2023-04-01T06:43:05.397Z,97329.09
2023-04-01T06:45:56.831Z,97330.03
2023-04-01T06:49:04.617Z,97327.84
2023-04-01T06:52:27.405Z,97327.53
2023-04-01T06:55:18.700Z,97329.56
2023-04-01T06:57:52.249Z,97327.31
2023-04-01T07:00:41.661Z,97324.22
2023-04-01T07:03:40.933Z,97335.50
2023-04-01T07:06:47.551Z,97333.13
2023-04-01T07:09:23.589Z,97329.03
2023-04-01T07:11:57.700Z,97328.03
2023-04-01T07:14:37.253Z,97335.19
2023-04-01T07:17:17.809Z,97333.41
2023-04-01T07:19:53.692Z,97344.31
2023-04-01T07:22:46.882Z,97345.47
2023-04-01T07:25:23.550Z,97331.75
2023-04-01T07:27:54.019Z,97345.53
2023-04-01T07:30:26.384Z,97339.59
2023-04-01T07:32:59.368Z,97335.78
2023-04-01T07:35:54.440Z,97338.28
2023-04-01T07:38:49.812Z,97336.19
2023-04-01T07:41:43.485Z,97340.59
2023-04-01T07:44:28.924Z,97360.22
2023-04-01T07:47:33.704Z,97367.22
2023-04-01T07:50:29.523Z,97354.34
2023-04-01T07:53:25.258Z,97354.81
2023-04-01T07:56:05.903Z,97372.19
2023-04-01T07:59:34.384Z,97383.22
2023-04-01T08:02:20.947Z,97375.13
2023-04-01T08:05:07.465Z,97376.13
2023-04-01T08:07:53.630Z,97369.34
2023-04-01T08:10:49.082Z,97380.06
2023-04-01T08:14:29.174Z,97372.19
2023-04-01T08:17:52.691Z,97359.38
2023-04-01T08:20:53.516Z,97355.84
2023-04-01T08:23:34.782Z,97381.44
2023-04-01T08:26:37.722Z,97365.81
2023-04-01T08:29:27.709Z,97371.69
2023-04-01T08:32:19.282Z,97363.75
2023-04-01T08:35:00.278Z,97368.78
2023-04-01T08:37:36.219Z,97374.94
2023-04-01T08:40:36.630Z,97376.97
2023-04-01T08:43:25.225Z,97379.34
2023-04-01T08:46:50.599Z,97382.00
2023-04-01T08:49:52.771Z,97369.88
2023-04-01T08:52:52.973Z,97356.13
2023-04-01T08:55:53.274Z,97362.16
2023-04-01T08:58:58.196Z,97370.91
2023-04-01T09:02:05.685Z,97384.53
2023-04-01T09:04:50.639Z,97407.44
2023-04-01T09:07:46.554Z,97378.97
2023-04-01T09:10:26.487Z,97383.81
2023-04-01T09:13:28.633Z,97379.03
2023-04-01T09:16:33.007Z,97388.00
2023-04-01T09:19:30.948Z,97383.03
2023-04-01T09:22:24.852Z,97390.84
2023-04-01T09:25:22.547Z,97373.00
2023-04-01T09:28:19.293Z,97381.97
2023-04-01T09:31:19.328Z,97385.22
2023-04-01T09:34:01.508Z,97380.25
2023-04-01T09:36:56.848Z,97368.00
2023-04-01T09:39:44.946Z,97373.41
2023-04-01T09:42:23.763Z,97373.06
2023-04-01T09:45:02.143Z,97385.44
2023-04-01T09:47:46.469Z,97385.09
2023-04-01T09:50:50.547Z,97382.63
2023-04-01T09:54:02.539Z,97378.44
2023-04-01T09:57:04.867Z,97379.31
2023-04-01T10:00:05.911Z,97389.53
2023-04-01T10:03:12.839Z,97384.78
2023-04-01T10:06:05.121Z,97390.22
2023-04-01T10:09:09.570Z,97391.91
2023-04-01T10:12:07.519Z,97387.84
2023-04-01T10:14:52.375Z,97394.72
2023-04-01T10:18:01.182Z,97383.19
2023-04-01T10:21:04.735Z,97379.34
2023-04-01T10:24:36.900Z,97390.44
2023-04-01T10:27:50.682Z,97397.91
2023-04-01T10:31:19.643Z,97392.25
2023-04-01T10:34:29.447Z,97397.41
2023-04-01T10:36:59.866Z,97398.22
2023-04-01T10:40:03.910Z,97401.06
2023-04-01T10:43:00.212Z,97395.22
2023-04-01T10:46:05.029Z,97399.28
2023-04-01T10:49:22.110Z,97399.63
2023-04-01T10:52:29.945Z,97416.22
2023-04-01T10:55:53.881Z,97413.00
2023-04-01T10:58:57.475Z,97415.88
2023-04-01T11:01:39.021Z,97404.31
2023-04-01T11:05:00.200Z,97432.50
2023-04-01T11:08:22.742Z,97398.34
2023-04-01T11:11:43.604Z,97412.72
2023-04-01T11:14:42.212Z,97430.53
2023-04-01T11:17:51.650Z,97426.59
2023-04-01T11:21:03.264Z,97418.66
2023-04-01T11:24:05.483Z,97420.34
2023-04-01T11:27:12.339Z,97413.03
2023-04-01T11:29:47.030Z,97422.78
2023-04-01T11:32:48.880Z,97428.47
2023-04-01T11:35:44.108Z,97436.59
2023-04-01T11:38:35.237Z,97463.38
2023-04-01T11:41:26.490Z,97430.59
2023-04-01T11:44:15.922Z,97435.28
2023-04-01T11:47:13.591Z,97451.78
2023-04-01T11:50:06.573Z,97437.41
2023-04-01T11:53:05.611Z,97433.88
2023-04-01T11:56:03.334Z,97445.84
2023-04-01T11:58:32.803Z,97448.25
2023-04-01T12:01:47.092Z,97459.66
2023-04-01T12:04:31.933Z,97464.88
2023-04-01T12:07:37.231Z,97475.03
2023-04-01T12:10:26.029Z,97456.66
2023-04-01T12:13:06.416Z,97461.53
2023-04-01T12:15:42.375Z,97466.63
2023-04-01T12:18:48.412Z,97457.06
2023-04-01T12:21:27.305Z,97479.97
2023-04-01T12:24:41.507Z,97462.94
2023-04-01T12:27:39.120Z,97465.94
2023-04-01T12:30:30.849Z,97461.72
2023-04-01T12:33:12.748Z,97463.19
2023-04-01T12:36:14.228Z,97478.88
2023-04-01T12:39:46.588Z,97468.28
2023-04-01T12:43:06.507Z,97472.38
2023-04-01T12:45:37.101Z,97480.16
2023-04-01T12:48:25.975Z,97489.22
2023-04-01T12:51:23.063Z,97484.13
2023-04-01T12:54:17.550Z,97472.47
2023-04-01T12:57:14.126Z,97481.41
2023-04-01T13:00:31.520Z,97480.22
2023-04-01T13:03:38.192Z,97489.81
2023-04-01T13:06:34.719Z,97477.59
2023-04-01T13:09:52.438Z,97488.13
2023-04-01T13:12:54.049Z,97497.00
2023-04-01T13:15:37.337Z,97502.84
2023-04-01T13:18:37.498Z,97503.66
2023-04-01T13:21:59.436Z,97503.25
2023-04-01T13:25:01.352Z,97506.56
2023-04-01T13:27:41.322Z,97514.84
2023-04-01T13:30:45.797Z,97513.81
2023-04-01T13:33:34.715Z,97508.84
2023-04-01T13:36:42.784Z,97516.97
2023-04-01T13:39:51.199Z,97531.06
2023-04-01T13:42:36.302Z,97525.69
2023-04-01T13:45:20.635Z,97522.53
2023-04-01T13:48:27.868Z,97520.13
2023-04-01T13:51:21.311Z,97525.97
2023-04-01T13:54:06.466Z,97533.56
2023-04-01T13:57:27.171Z,97524.63
2023-04-01T14:00:18.353Z,97529.78
2023-04-01T14:03:31.221Z,97538.31
2023-04-01T14:06:33.385Z,97534.28
2023-04-01T14:09:48.212Z,97528.38
2023-04-01T14:12:30.913Z,97528.53
2023-04-01T14:15:25.346Z,97536.69
2023-04-01T14:18:14.222Z,97521.91
2023-04-01T14:21:28.021Z,97516.31
2023-04-01T14:24:26.060Z,97531.56
2023-04-01T14:27:21.280Z,97530.69
2023-04-01T14:30:15.286Z,97525.91
2023-04-01T14:33:25.696Z,97527.47
2023-04-01T14:36:44.469Z,97531.44
2023-04-01T14:40:06.486Z,97531.41
2023-04-01T14:43:07.232Z,97524.53
2023-04-01T14:46:15.658Z,97552.47
2023-04-01T14:49:15.597Z,97530.97
2023-04-01T14:51:43.004Z,97522.38
2023-04-01T14:54:12.820Z,97547.03
2023-04-01T14:56:51.607Z,97535.19
2023-04-01T14:59:24.468Z,97540.94
2023-04-01T15:02:15.283Z,97540.84
2023-04-01T15:05:14.448Z,97535.03
2023-04-01T15:08:12.902Z,97544.31
2023-04-01T15:10:54.643Z,97543.41
2023-04-01T15:13:31.225Z,97543.19
2023-04-01T15:16:25.872Z,97541.38
2023-04-01T15:19:24.868Z,97543.56
2023-04-01T15:22:18.658Z,97536.88
2023-04-01T15:25:07.066Z,97552.94
2023-04-01T15:27:45.264Z,97553.28
2023-04-01T15:30:31.903Z,97558.94
2023-04-01T15:33:26.254Z,97544.66
2023-04-01T15:36:36.198Z,97557.09
2023-04-01T15:39:17.876Z,97552.88
2023-04-01T15:42:23.409Z,97557.88
2023-04-01T15:44:53.232Z,97565.56
2023-04-01T15:47:26.433Z,97562.50
2023-04-01T15:50:47.470Z,97562.72
2023-04-01T15:53:36.805Z,97578.34
2023-04-01T15:56:24.707Z,97577.06
2023-04-01T15:59:25.140Z,97559.84
2023-04-01T16:02:20.754Z,97561.44
2023-04-01T16:05:20.425Z,97579.16
2023-04-01T16:08:31.195Z,97585.13
2023-04-01T16:11:27.088Z,97579.78
2023-04-01T16:14:43.527Z,97587.13
2023-04-01T16:17:39.669Z,97583.97
2023-04-01T16:20:21.813Z,97576.44
2023-04-01T16:23:02.740Z,97573.91
2023-04-01T16:25:46.238Z,97580.53
2023-04-01T16:28:32.341Z,97579.66
2023-04-01T16:31:14.557Z,97583.16
2023-04-01T16:33:59.904Z,97574.44
2023-04-01T16:37:15.524Z,97579.59
2023-04-01T16:40:02.229Z,97573.38
2023-04-01T16:43:05.792Z,97568.88
2023-04-01T16:45:49.609Z,97566.63
2023-04-01T16:48:30.455Z,97572.44
2023-04-01T16:51:12.518Z,97569.72
2023-04-01T16:53:46.737Z,97578.06
2023-04-01T16:56:29.665Z,97581.44
2023-04-01T16:59:22.732Z,97594.09
2023-04-01T17:02:08.011Z,97601.88
2023-04-01T17:04:58.815Z,97612.63
2023-04-01T17:08:16.104Z,97623.78
2023-04-01T17:11:02.188Z,97645.28
2023-04-01T17:14:10.338Z,97657.81
2023-04-01T17:17:11.886Z,97655.53
2023-04-01T17:20:06.659Z,97675.38
2023-04-01T17:23:13.406Z,97668.88
2023-04-01T17:26:01.475Z,97680.13
2023-04-01T17:28:53.744Z,97648.19
2023-04-01T17:31:41.706Z,97653.47
2023-04-01T17:34:34.178Z,97657.44
2023-04-01T17:37:10.223Z,97648.69
2023-04-01T17:40:09.658Z,97649.16
2023-04-01T17:43:00.623Z,97649.28
2023-04-01T17:45:55.616Z,97648.34
2023-04-01T17:48:40.664Z,97655.19
2023-04-01T17:51:49.969Z,97657.25
2023-04-01T17:54:45.836Z,97659.47
2023-04-01T17:57:48.017Z,97663.31
2023-04-01T18:00:25.192Z,97661.88
2023-04-01T18:03:22.016Z,97670.66
2023-04-01T18:06:08.943Z,97667.47
2023-04-01T18:09:26.594Z,97677.19
2023-04-01T18:12:25.249Z,97683.44
2023-04-01T18:15:18.661Z,97687.25
2023-04-01T18:17:51.376Z,97687.88
2023-04-01T18:20:49.246Z,97689.47
2023-04-01T18:23:29.087Z,97694.91
2023-04-01T18:26:13.722Z,97710.03
2023-04-01T18:28:53.917Z,97710.66
2023-04-01T18:31:33.832Z,97709.88
2023-04-01T18:34:18.638Z,97704.13
2023-04-01T18:37:12.533Z,97712.44
2023-04-01T18:40:00.470Z,97707.78
2023-04-01T18:43:17.699Z,97715.94
2023-04-01T18:46:07.883Z,97713.22
2023-04-01T18:49:06.282Z,97713.38
2023-04-01T18:51:48.649Z,97714.16
2023-04-01T18:54:41.442Z,97715.44
2023-04-01T18:57:16.875Z,97725.50
2023-04-01T18:59:54.073Z,97722.44
2023-04-01T19:02:44.147Z,97721.19
2023-04-01T19:05:27.585Z,97725.63
2023-04-01T19:08:12.817Z,97727.06
2023-04-01T19:11:11.748Z,97725.81
2023-04-01T19:13:56.852Z,97722.94
2023-04-01T19:16:51.371Z,97728.19
2023-04-01T19:20:08.673Z,97737.59
2023-04-01T19:22:51.007Z,97737.59
2023-04-01T19:25:33.551Z,97754.78
2023-04-01T19:28:51.884Z,97742.84
2023-04-01T19:31:46.262Z,97753.19
2023-04-01T19:34:32.547Z,97743.16
2023-04-01T19:37:30.639Z,97756.22
2023-04-01T19:40:36.198Z,97752.88
2023-04-01T19:43:39.422Z,97755.25
2023-04-01T19:46:29.943Z,97751.13
2023-04-01T19:49:49.870Z,97758.13
2023-04-01T19:52:42.251Z,97749.84
2023-04-01T19:55:37.304Z,97754.13
2023-04-01T19:58:27.283Z,97747.78
2023-04-01T20:00:59.546Z,97751.59
2023-04-01T20:03:51.121Z,97759.72
2023-04-01T20:07:02.883Z,97767.84
2023-04-01T20:10:04.112Z,97772.44
2023-04-01T20:12:58.886Z,97771.50
2023-04-01T20:15:47.677Z,97773.72
2023-04-01T20:18:37.772Z,97777.72
2023-04-01T20:21:50.817Z,97774.53
2023-04-01T20:24:34.700Z,97785.38
2023-04-01T20:27:18.087Z,97784.41
2023-04-01T20:30:25.718Z,97791.72
2023-04-01T20:33:22.752Z,97789.81
2023-04-01T20:36:10.754Z,97785.81
2023-04-01T20:39:36.071Z,97790.28
2023-04-01T20:42:21.333Z,97795.56
2023-04-01T20:45:34.793Z,97799.38
2023-04-01T20:48:27.287Z,97811.81
2023-04-01T20:51:22.729Z,97816.25
2023-04-01T20:54:27.820Z,97822.28
2023-04-01T20:57:27.971Z,97820.56
2023-04-01T21:00:34.629Z,97835.34
2023-04-01T21:03:01.428Z,97825.16
2023-04-01T21:05:51.351Z,97827.88
2023-04-01T21:08:52.345Z,97834.88
2023-04-01T21:11:59.729Z,97833.91
2023-04-01T21:15:00.297Z,97839.97
2023-04-01T21:17:35.395Z,97844.28
2023-04-01T21:20:05.182Z,97838.88
2023-04-01T21:23:07.322Z,97848.59
2023-04-01T21:26:20.569Z,97846.03
2023-04-01T21:29:43.631Z,97856.53
2023-04-01T21:32:57.919Z,97854.47
2023-04-01T21:35:43.284Z,97861.31
2023-04-01T21:38:37.374Z,97857.66
2023-04-01T21:41:28.840Z,97858.78
2023-04-01T21:44:33.486Z,97858.94
2023-04-01T21:47:19.493Z,97853.34
2023-04-01T21:50:23.583Z,97870.53
2023-04-01T21:53:35.277Z,97867.84
2023-04-01T21:56:32.803Z,97867.53
2023-04-01T21:59:47.122Z,97868.16
2023-04-01T22:03:06.083Z,97874.53
2023-04-01T22:06:12.757Z,97883.94
2023-04-01T22:08:51.995Z,97889.34
2023-04-01T22:11:55.342Z,97879.63
2023-04-01T22:14:32.387Z,97881.56
2023-04-01T22:17:39.124Z,97880.44
2023-04-01T22:20:41.787Z,97882.81
2023-04-01T22:23:36.830Z,97889.34
2023-04-01T22:26:23.288Z,97883.16
2023-04-01T22:29:08.076Z,97870.09
2023-04-01T22:32:03.474Z,97882.19
2023-04-01T22:35:11.700Z,97876.47
2023-04-01T22:38:15.080Z,97872.81
2023-04-01T22:40:50.329Z,97881.41
2023-04-01T22:43:33.567Z,97881.06
2023-04-01T22:46:04.734Z,97879.47
2023-04-01T22:48:50.365Z,97887.94
2023-04-01T22:51:28.552Z,97887.13
2023-04-01T22:54:04.321Z,97892.38
2023-04-01T22:56:44.323Z,97897.94
2023-04-01T22:59:24.568Z,97892.53
2023-04-01T23:02:02.127Z,97898.75
2023-04-01T23:04:43.085Z,97896.53
2023-04-01T23:07:47.378Z,97894.31
2023-04-01T23:10:29.748Z,97904.03
2023-04-01T23:13:04.611Z,97900.22
2023-04-01T23:15:34.200Z,97900.50
2023-04-01T23:18:23.126Z,97901.47
2023-04-01T23:21:16.329Z,97898.28
2023-04-01T23:24:20.764Z,97904.81
2023-04-01T23:27:01.697Z,97906.72
2023-04-01T23:29:29.318Z,97909.94
2023-04-01T23:32:05.216Z,97928.88
2023-04-01T23:34:35.834Z,97929.66
2023-04-01T23:37:17.036Z,97930.78
2023-04-01T23:39:52.187Z,97935.41
2023-04-01T23:42:28.014Z,97942.09
2023-04-01T23:45:06.869Z,97943.06
2023-04-01T23:47:39.324Z,97942.22
2023-04-01T23:50:18.702Z,97947.34
2023-04-01T23:52:58.362Z,97952.28
2023-04-01T23:55:35.590Z,97950.06
2023-04-01T23:58:43.466Z,97949.25
